ADDS METAR Data INFO
IDs: Format: Raw Decoded Include TAF

Data at: 1952 UTC 15 Dec 2017

PASN 151920Z AUTO 29007KT 4SM -SN BR OVC026 00/00 A2878 RMK AO2 P0000 T00000000 TSNO
PASN 151853Z AUTO 29006KT 2SM -SN BR OVC022 00/00 A2878 RMK AO2 SNE09B13 SLP747 P0001 T00000000 TSNO
PASN 151839Z AUTO 29007KT 2 1/2SM -SN BR OVC028 00/00 A2878 RMK AO2 SNE09B13 P0000 T00000000 TSNO
PASN 151809Z AUTO 32006KT 9SM OVC033 00/00 A2878 RMK AO2 SNE09 P0000 T00000000 TSNO
PASN 151753Z AUTO 33006KT 5SM -SN BR OVC027 00/00 A2878 RMK AO2 SLP747 P0001 60033 T00000000 10017 20000 58008 TSNO
PASN 151653Z AUTO 32006KT 3SM -SN BR OVC025 00/00 A2879 RMK AO2 SLP751 P0003 T00000000 TSNO
PASN 151646Z AUTO 31006KT 3SM -SN BR OVC025 00/00 A2879 RMK AO2 P0003 T00000000 TSNO
PASN 151626Z AUTO 30003KT 2SM -SN BR OVC017 00/00 A2880 RMK AO2 P0002 T00000000 TSNO
PASN 151611Z AUTO 26004KT 1 1/2SM -SN BR OVC015 00/00 A2880 RMK AO2 P0001 T00000000 TSNO $
PASN 151553Z AUTO 00000KT 1 1/4SM -SN BR OVC011 00/00 A2880 RMK AO2 SLP755 P0010 T00000000 TSNO $
PASN 151536Z AUTO 28007KT 3/4SM -SN BR VV010 00/00 A2881 RMK AO2 P0007 T00000000 TSNO
PASN 151528Z AUTO 27011KT 1SM -SN BR VV012 00/00 A2881 RMK AO2 P0006 T00000000 TSNO
PASN 151519Z AUTO 21009KT 2 1/2SM -SN BR FEW007 OVC012 01/01 A2881 RMK AO2 P0003 T00060006 TSNO
PASN 151511Z AUTO 13011KT 3SM -SN BR FEW006 OVC011 01/01 A2881 RMK AO2 P0002 T00060006 TSNO
PASN 151458Z AUTO 12013KT 3SM -SN BR FEW003 OVC009 01/01 A2881 RMK AO2 P0000 T00060006 TSNO
PASN 151453Z AUTO 11014KT 1 3/4SM -SN BR FEW005 OVC010 01/01 A2881 RMK AO2 SLP755 P0008 60019 T00060006 58005 TSNO
PASN 151440Z AUTO 08005KT 1 1/4SM -SN BR FEW003 OVC010 00/00 A2881 RMK AO2 P0006 T00000000 TSNO
PASN 151430Z AUTO 08003KT 1 1/2SM -SN BR OVC012 01/01 A2881 RMK AO2 P0005 T00060006 TSNO
PASN 151423Z AUTO 13004KT 2SM -SN BR OVC014 01/01 A2881 RMK AO2 P0004 T00060006 TSNO
PASN 151412Z AUTO 14007KT 3SM -SN BR OVC014 01/01 A2882 RMK AO2 P0002 T00060006 TSNO
PASN 151406Z AUTO 15008KT 2 1/2SM -SN BR OVC015 01/01 A2882 RMK AO2 P0002 T00060006 TSNO
PASN 151353Z AUTO 13009KT 2 1/2SM -SN BR OVC014 01/01 A2882 RMK AO2 RAB16E27 SLP760 P0006 T00060006 TSNO
PASN 151343Z AUTO 13011KT 2 1/2SM -SN BR FEW007 OVC014 01/01 A2882 RMK AO2 RAB16E27 P0005 T00060006 TSNO
PASN 151253Z AUTO 14018KT 4SM -SN BR FEW008 OVC012 02/02 A2882 RMK AO2 PK WND 12029/1211 SLP760 P0005 T00170017 TSNO
PASN 151250Z AUTO 13017G25KT 4SM -SN BR FEW008 OVC014 02/02 A2882 RMK AO2 PK WND 12029/1211 P0004 TSNO
PASN 151217Z AUTO 13021G29KT 4SM -SN BR FEW009 OVC015 02/02 A2882 RMK AO2 PK WND 12029/1211 P0003 T00170017 TSNO
PASN 151153Z AUTO 12018G25KT 4SM -SN BR OVC011 02/02 A2882 RMK AO2 PK WND 12027/1100 SLP762 P0004 60016 70034 T00220022 10033 20022 56015 TSNO
PASN 151053Z AUTO 12021G30KT 5SM -SN BR BKN010 OVC019 03/03 A2884 RMK AO2 PK WND 12030/1048 SLP766 P0004 T00280028 TSNO
PASN 151041Z AUTO 12019G26KT 5SM -SN BR BKN010 OVC021 03/03 A2884 RMK AO2 PK WND 12029/1005 P0003 T00280028 TSNO
PASN 151019Z AUTO 12022G28KT 5SM -SN BR BKN009 OVC019 03/03 A2885 RMK AO2 PK WND 12029/1005 P0001 T00280028 TSNO
PASN 150953Z AUTO 12021G30KT 4SM -SN BR SCT007 OVC021 03/03 A2885 RMK AO2 PK WND 13031/0933 SLP771 P0002 T00280028 TSNO
PASN 150913Z AUTO 13022G29KT 6SM -SN BR SCT007 SCT014 OVC024 03/03 A2886 RMK AO2 PK WND 12029/0912 P0000 T00330033 TSNO
PASN 150901Z AUTO 12021G29KT 3SM -SN BR BKN006 OVC011 03/03 A2887 RMK AO2 P0000 T00330033 TSNO
PASN 150853Z AUTO 12021G30KT 4SM -SN BR SCT006 OVC011 03/03 A2887 RMK AO2 PK WND 13030/0817 SLP776 P0002 60006 T00330033 400331017 56020 TSNO
PASN 150851Z AUTO 13022G30KT 4SM -SN BR SCT006 OVC011 03/03 A2887 RMK AO2 PK WND 13030/0817 P0002 TSNO
PASN 150834Z AUTO 12022G29KT 2 1/2SM -SN BR OVC006 03/03 A2887 RMK AO2 PK WND 13030/0817 P0001 T00330033 TSNO
PASN 150823Z AUTO 12022G30KT 1 3/4SM -SN BR OVC006 03/03 A2888 RMK AO2 PK WND 13030/0817 P0001 T00330033 TSNO
PASN 150815Z AUTO 12020G29KT 2SM -SN BR OVC006 03/03 A2888 RMK AO2 PK WND 12029/0810 P0001 T00330033 TSNO
PASN 150802Z AUTO 12020G29KT 1 3/4SM -SN BR OVC007 03/03 A2888 RMK AO2 PK WND 11029/0754 P0000 T00330033 TSNO
PASN 150753Z AUTO 11023KT 2SM -SN BR OVC007 03/03 A2888 RMK AO2 PK WND 11034/0654 SLP781 P0001 T00330033 TSNO
PASN 150732Z AUTO 11023G31KT 2 1/2SM -SN BR BKN008 OVC014 03/03 A2889 RMK AO2 PK WND 11034/0654 P0000 T00330028 TSNO
PASN 150724Z AUTO 11024G31KT 4SM -SN BR SCT008 OVC016 03/03 A2889 RMK AO2 PK WND 11034/0654 P0000 T00280028 TSNO
PASN 150713Z AUTO 11023G29KT 5SM -SN BR BKN008 OVC016 03/03 A2890 RMK AO2 PK WND 11034/0654 P0000 T00280028 TSNO
PASN 150653Z AUTO 11023G31KT 4SM -SN BR OVC012 03/03 A2891 RMK AO2 PK WND 11037/0620 SLP789 P0003 T00280028 TSNO
PASN 150553Z AUTO 11029G36KT 5SM -SN BR BKN010 OVC014 02/02 A2893 RMK AO2 PK WND 11041/0531 SLP796 P0003 60016 T00220017 10028 20017 56028 TSNO
PASN 150537Z AUTO 11027G41KT 5SM -SN BR SCT009 OVC015 02/02 A2894 RMK AO2 PK WND 11041/0531 P0002 T00220017 TSNO
PASN 150503Z AUTO 11029G38KT 5SM -SN BR SCT008 OVC014 02/02 A2895 RMK AO2 PK WND 11038/0502 P0000 T00220017 TSNO
PASN 150453Z AUTO 11025G35KT 5SM -SN BR OVC010 02/02 A2896 RMK AO2 PK WND 11037/0423 SLP806 P0003 T00220017 TSNO
PASN 150445Z AUTO 11025G33KT 5SM -SN BR OVC010 02/02 A2896 RMK AO2 PK WND 11037/0423 P0002 T00220017 TSNO
PASN 150435Z AUTO 11026G36KT 4SM -SN BR OVC009 02/02 A2896 RMK AO2 PK WND 11037/0423 P0002 T00220017 TSNO
PASN 150412Z AUTO 11025G34KT 4SM -SN BR SCT007 OVC012 02/02 A2897 RMK AO2 PK WND 10034/0355 P0000 T00170017 TSNO
PASN 150353Z AUTO 10025G36KT 4SM -SN BR BKN007 OVC011 02/01 A2898 RMK AO2 PK WND 10036/0346 SLP814 P0002 T00170011 TSNO
PASN 150253Z AUTO 10025G38KT 4SM -SN BR BKN007 OVC013 02/01 A2901 RMK AO2 PK WND 11038/0250 SLP825 P0004 60008 T00170011 56048 TSNO
PASN 150153Z AUTO 11028G36KT 3SM -SN BR BKN008 OVC014 02/02 A2905 RMK AO2 PK WND 11036/0151 SLP838 P0002 T00220017 TSNO
PASN 150053Z AUTO 10020G31KT 3SM -SN BR BKN007 BKN012 OVC016 02/01 A2910 RMK AO2 PK WND 10034/0039 SLP855 P0002 T00170011 TSNO
PASN 150022Z AUTO 11025G32KT 3SM -SN BR BKN008 BKN014 OVC021 02/01 A2913 RMK AO2 PK WND 11034/0003 P0001 T00170011 TSNO
PASN 150010Z AUTO 11026G34KT 3SM -SN BR SCT008 BKN012 OVC019 02/01 A2914 RMK AO2 PK WND 11034/0003 P0001 T00170006 TSNO
PASN 150001Z AUTO 11024G30KT 5SM -SN BR BKN008 BKN014 OVC021 02/01 A2914 RMK AO2 PK WND 11030/0000 P0000 T00170011 TSNO
PASN 142353Z AUTO 11023G30KT 2 1/2SM -SN BR BKN008 OVC013 02/01 A2915 RMK AO2 PK WND 12033/2259 SLP873 P0002 60002 T00170006 10017 20011 58041 TSNO
PASN 142343Z AUTO 11020G30KT 2SM -SN BR BKN007 BKN015 OVC021 01/01 A2916 RMK AO2 PK WND 12033/2259 P0002 T00110006 TSNO
PASN 142328Z AUTO 11023G29KT 2 1/2SM -SN BR FEW007 BKN012 OVC026 01/01 A2917 RMK AO2 PK WND 12033/2259 P0001 T00110006 TSNO
PASN 142320Z AUTO 12024G29KT 5SM -SN BR FEW010 BKN015 OVC033 02/01 A2918 RMK AO2 PK WND 12033/2259 P0001 T00170006 TSNO
PASN 142309Z AUTO 12025G32KT 4SM -SN BR BKN013 OVC035 01/00 A2919 RMK AO2 PK WND 12033/2259 P0001 T00110000 TSNO
PASN 142302Z AUTO 12024G33KT 5SM -SN BR SCT008 BKN015 OVC031 01/00 A2919 RMK AO2 PK WND 12033/2259 P0001 T00110000 TSNO
PASN 142253Z AUTO 12021G29KT 6SM -SN BR SCT008 BKN031 OVC049 01/01 A2920 RMK AO2 PK WND 11038/2224 SLP888 P0000 T00110006 TSNO
PASN 142250Z AUTO 13022G30KT 4SM -SN BR SCT007 SCT014 OVC029 01/00 A2920 RMK AO2 PK WND 11038/2224 P0000 TSNO
PASN 142242Z AUTO 13025G30KT 2SM -SN BR BKN007 BKN011 OVC017 01/01 A2920 RMK AO2 PK WND 11038/2224 VIS 1 1/4V3 P0000 T00110006 TSNO
PASN 142226Z AUTO 12028G38KT 4SM -SN BR BKN008 OVC015 02/01 A2921 RMK AO2 PK WND 11038/2224 P0000 T00170006 TSNO
PASN 142216Z AUTO 09026G33KT 5SM -SN BR SCT009 OVC015 01/00 A2922 RMK AO2 PK WND 10033/2215 P0000 T00110000 TSNO
PASN 142206Z AUTO 09025G32KT 2SM -SN BR FEW009 OVC018 01/M01 A2923 RMK AO2 PK WND 09032/2200 P0000 T00111006 TSNO
PASN 142202Z AUTO 09023G32KT 1 3/4SM -SN BR OVC018 01/M01 A2923 RMK AO2 PK WND 09032/2200 P0000 T00111006 TSNO
PASN 142153Z AUTO 09025G31KT 3SM -SN BR OVC019 01/M01 A2923 RMK AO2 PK WND 10034/2130 SLP900 P0000 T00111006 TSNO
PASN 142140Z AUTO 09025G32KT 1 3/4SM -SN BR OVC019 01/M01 A2924 RMK AO2 PK WND 10034/2130 P0000 T00111011 TSNO
PASN 142105Z AUTO 10022G29KT 4SM -SN SCT022 OVC029 02/M02 A2927 RMK AO2 PK WND 09029/2056 P0000 T00171017 TSNO
PASN 142053Z AUTO 10019KT 5SM -SN FEW020 OVC030 01/M02 A2927 RMK AO2 PK WND 10030/2028 SLP914 P0000 60000 T00111022 56030 TSNO
PASN 141953Z AUTO 10021G28KT 9SM -SN OVC033 02/M03 A2930 RMK AO2 PK WND 12028/1947 SLP923 P0000 T00171033 TSNO
PASN 141853Z AUTO 09018KT 9SM -SN OVC041 01/M03 A2933 RMK AO2 SLP932 P0000 T00111033 TSNO
PASN 141753Z AUTO 10017KT 9SM -SN SCT033 OVC043 00/M04 A2936 RMK AO2 PK WND 09026/1718 SNB32 SLP943 P0000 60000 T00001039 10006 21017 58030 TSNO
PASN 141653Z AUTO 11015G22KT 10SM OVC034 00/M05 A2940 RMK AO2 SNB33E42 SLP956 P0000 T00001050 TSNO
PASN 141553Z AUTO 12012KT 10SM OVC039 00/M06 A2942 RMK AO2 SLP964 T00001061 TSNO
PASN 141453Z AUTO 12012KT 10SM FEW041 M01/M05 A2945 RMK AO2 SNB26E39 SLP973 P0000 60000 T10111050 58023 TSNO
PASN 141353Z AUTO 11013KT 10SM BKN035 OVC045 M01/M06 A2947 RMK AO2 SLP982 T10111061 TSNO
PASN 141253Z AUTO 12012KT 10SM FEW037 BKN049 M01/M07 A2950 RMK AO2 SLP989 T10111072 TSNO
PASN 141153Z AUTO 10010KT 10SM OVC045 M01/M07 A2952 RMK AO2 SNB01E11 SLP996 P0000 60000 T10111067 11011 21050 56012 TSNO
PASN 141053Z AUTO 12010KT 10SM BKN043 OVC055 M01/M08 A2953 RMK AO2 SLP999 T10111078 TSNO
PASN 140953Z AUTO 11009KT 10SM OVC060 M02/M08 A2953 RMK AO2 SLP001 T10171083 TSNO
PASN 140853Z AUTO 10009KT 10SM FEW045 OVC055 M02/M07 A2955 RMK AO2 SLP007 T10171072 410111067 58004 TSNO
PASN 140753Z AUTO 09010KT 10SM SCT039 OVC050 M02/M06 A2956 RMK AO2 SLP009 T10171061 TSNO